createdAt,value
2017-12-10T00:02:05.096Z,90.61
2017-12-10T00:04:30.867Z,90.64
2017-12-10T00:06:56.628Z,90.58
2017-12-10T00:09:22.383Z,90.47
2017-12-10T00:11:48.132Z,90.47
2017-12-10T00:14:13.894Z,90.71
2017-12-10T00:16:39.639Z,90.35
2017-12-10T00:19:05.417Z,90.30
2017-12-10T00:21:31.156Z,90.29
2017-12-10T00:23:56.908Z,90.21
2017-12-10T00:26:22.651Z,90.17
2017-12-10T00:28:48.672Z,90.18
2017-12-10T00:31:14.444Z,90.08
2017-12-10T00:33:40.272Z,90.16
2017-12-10T00:36:05.979Z,90.01
2017-12-10T00:38:31.763Z,89.70
2017-12-10T00:40:57.527Z,89.45
2017-12-10T00:45:55.809Z,89.43
2017-12-10T00:48:21.609Z,89.96
2017-12-10T00:50:47.375Z,89.89
2017-12-10T00:53:13.146Z,89.93
2017-12-10T00:55:38.948Z,90.22
2017-12-10T00:58:04.725Z,90.26
2017-12-10T01:00:30.471Z,90.08
2017-12-10T01:02:56.215Z,89.95
2017-12-10T01:05:21.976Z,89.79
2017-12-10T01:07:47.728Z,89.80
2017-12-10T01:10:13.499Z,89.59
2017-12-10T01:12:39.248Z,89.30
2017-12-10T01:15:05.025Z,89.09
2017-12-10T01:17:30.788Z,89.16
2017-12-10T01:19:56.583Z,89.25
2017-12-10T01:22:22.353Z,89.55
2017-12-10T01:24:48.112Z,89.43
2017-12-10T01:27:13.873Z,89.30
2017-12-10T01:29:39.656Z,89.14
2017-12-10T01:32:05.432Z,88.96
2017-12-10T01:34:31.183Z,89.11
2017-12-10T01:36:56.976Z,89.80
2017-12-10T01:39:22.742Z,89.26
2017-12-10T01:41:48.532Z,89.24
2017-12-10T01:44:14.296Z,89.24
2017-12-10T01:46:40.088Z,89.16
2017-12-10T01:49:05.852Z,89.18
2017-12-10T01:51:31.624Z,88.85
2017-12-10T01:53:57.431Z,88.93
2017-12-10T01:56:23.212Z,88.98
2017-12-10T01:58:48.991Z,89.19
2017-12-10T02:01:14.757Z,89.31
2017-12-10T02:03:40.515Z,89.16
2017-12-10T02:06:06.271Z,89.12
2017-12-10T02:08:32.032Z,89.21
2017-12-10T02:10:57.795Z,88.87
2017-12-10T02:13:23.582Z,88.94
2017-12-10T02:15:49.344Z,89.14
2017-12-10T02:18:15.128Z,89.29
2017-12-10T02:20:40.884Z,88.77
2017-12-10T02:23:06.659Z,89.02
2017-12-10T02:25:32.416Z,88.93
2017-12-10T02:27:58.224Z,88.89
2017-12-10T02:30:23.989Z,87.97
2017-12-10T02:32:49.767Z,88.38
2017-12-10T02:35:15.536Z,88.58
2017-12-10T02:37:41.312Z,88.74
2017-12-10T02:40:07.105Z,88.72
2017-12-10T02:42:32.869Z,88.78
2017-12-10T02:44:58.663Z,88.51
2017-12-10T02:47:24.426Z,88.43
2017-12-10T02:49:50.187Z,88.20
2017-12-10T02:52:15.956Z,88.02
2017-12-10T02:54:41.715Z,88.07
2017-12-10T02:57:07.492Z,87.95
2017-12-10T02:59:33.259Z,87.93
2017-12-10T03:01:59.032Z,87.96
2017-12-10T03:04:24.797Z,88.56
2017-12-10T03:06:50.548Z,88.17
2017-12-10T03:09:16.338Z,87.95
2017-12-10T03:11:42.099Z,88.01
2017-12-10T03:14:07.852Z,87.93
2017-12-10T03:16:33.635Z,87.81
2017-12-10T03:18:59.399Z,87.60
2017-12-10T03:21:41.017Z,87.89
2017-12-10T03:24:06.843Z,88.08
2017-12-10T03:26:32.605Z,88.16
2017-12-10T03:28:58.404Z,88.19
2017-12-10T03:31:24.166Z,88.34
2017-12-10T03:33:49.923Z,88.73
2017-12-10T03:36:15.696Z,88.83
2017-12-10T03:38:41.465Z,88.88
2017-12-10T03:41:07.248Z,89.00
2017-12-10T03:43:32.996Z,89.27
2017-12-10T03:45:58.780Z,89.50
2017-12-10T03:48:24.554Z,89.52
2017-12-10T03:50:50.348Z,89.64
2017-12-10T03:53:16.134Z,89.83
2017-12-10T03:55:41.891Z,89.61
2017-12-10T03:58:07.636Z,89.47
2017-12-10T04:00:33.413Z,89.56
2017-12-10T04:02:59.156Z,89.63
2017-12-10T04:05:24.919Z,89.44
2017-12-10T04:07:50.677Z,89.71
2017-12-10T04:10:16.424Z,89.56
2017-12-10T04:12:42.201Z,89.43
2017-12-10T04:15:07.956Z,89.48
2017-12-10T04:17:33.719Z,89.08
2017-12-10T04:19:59.463Z,88.96
2017-12-10T04:22:25.231Z,88.99
2017-12-10T04:24:50.979Z,88.61
2017-12-10T04:27:16.747Z,88.80
2017-12-10T04:29:42.503Z,88.57
2017-12-10T04:32:08.263Z,88.56
2017-12-10T04:34:34.015Z,88.64
2017-12-10T04:36:59.776Z,88.60
2017-12-10T04:39:25.520Z,87.72
2017-12-10T04:41:51.275Z,88.30
2017-12-10T04:44:17.015Z,88.42
2017-12-10T04:46:42.782Z,88.52
2017-12-10T04:49:08.531Z,88.07
2017-12-10T04:51:34.292Z,88.07
2017-12-10T04:54:00.035Z,87.60
2017-12-10T04:56:25.788Z,87.44
2017-12-10T04:58:51.556Z,87.64
2017-12-10T05:01:17.290Z,87.90
2017-12-10T05:03:43.039Z,87.77
2017-12-10T05:06:08.803Z,87.74
2017-12-10T05:08:34.580Z,87.70
2017-12-10T05:11:00.331Z,87.46
2017-12-10T05:13:26.100Z,87.40
2017-12-10T05:15:51.843Z,87.25
2017-12-10T05:18:17.609Z,87.61
2017-12-10T05:20:43.357Z,87.69
2017-12-10T05:23:09.118Z,87.54
2017-12-10T05:25:34.863Z,87.82
2017-12-10T05:28:00.647Z,87.57
2017-12-10T05:30:26.398Z,87.55
2017-12-10T05:32:52.156Z,87.39
2017-12-10T05:35:17.911Z,87.38
2017-12-10T05:37:43.673Z,86.88
2017-12-10T05:40:09.443Z,87.35
2017-12-10T05:42:35.170Z,87.00
2017-12-10T05:45:00.948Z,87.16
2017-12-10T05:47:26.680Z,87.28
2017-12-10T05:49:52.446Z,87.02
2017-12-10T05:52:18.196Z,86.83
2017-12-10T05:54:43.952Z,86.80
2017-12-10T05:57:09.707Z,87.24
2017-12-10T05:59:35.464Z,87.25
2017-12-10T06:02:01.224Z,87.24
2017-12-10T06:04:26.978Z,87.41
2017-12-10T06:06:52.736Z,87.45
2017-12-10T06:09:18.486Z,87.14
2017-12-10T06:11:44.239Z,87.16
2017-12-10T06:14:09.991Z,87.21
2017-12-10T06:16:35.732Z,86.91
2017-12-10T06:19:01.487Z,86.49
2017-12-10T06:21:27.242Z,86.65
2017-12-10T06:23:52.998Z,86.36
2017-12-10T06:26:18.754Z,86.50
2017-12-10T06:28:44.515Z,86.74
2017-12-10T06:31:10.263Z,86.47
2017-12-10T06:33:36.016Z,86.53
2017-12-10T06:36:01.772Z,86.59
2017-12-10T06:38:27.512Z,86.86
2017-12-10T06:40:53.271Z,86.44
2017-12-10T06:43:19.015Z,86.73
2017-12-10T06:45:44.793Z,86.47
2017-12-10T06:48:10.536Z,86.78
2017-12-10T06:50:36.300Z,86.54
2017-12-10T06:53:02.041Z,86.32
2017-12-10T06:55:27.816Z,86.07
2017-12-10T06:57:53.587Z,86.34
2017-12-10T07:00:19.347Z,85.62
2017-12-10T07:02:45.103Z,86.22
2017-12-10T07:05:10.859Z,86.17
2017-12-10T07:07:36.610Z,86.01
2017-12-10T07:10:02.368Z,85.47
2017-12-10T07:12:28.129Z,85.17
2017-12-10T07:14:53.883Z,85.46
2017-12-10T07:17:19.627Z,85.36
2017-12-10T07:19:45.371Z,86.10
2017-12-10T07:22:11.132Z,85.97
2017-12-10T07:24:36.867Z,85.68
2017-12-10T07:27:02.622Z,85.73
2017-12-10T07:29:28.398Z,85.76
2017-12-10T07:31:54.159Z,85.44
2017-12-10T07:34:19.901Z,85.75
2017-12-10T07:36:45.663Z,85.92
2017-12-10T07:39:11.411Z,85.83
2017-12-10T07:41:37.176Z,85.89
2017-12-10T07:44:02.914Z,86.55
2017-12-10T07:46:28.665Z,85.93
2017-12-10T07:48:54.423Z,86.39
2017-12-10T07:51:20.180Z,86.25
2017-12-10T07:53:45.942Z,86.49
2017-12-10T07:56:11.683Z,86.46
2017-12-10T07:58:37.458Z,86.81
2017-12-10T08:01:03.223Z,86.61
2017-12-10T08:03:29.018Z,86.62
2017-12-10T08:05:54.762Z,86.74
2017-12-10T08:08:20.536Z,86.70
2017-12-10T08:10:46.299Z,87.05
2017-12-10T08:13:12.071Z,87.51
2017-12-10T08:15:37.815Z,87.00
2017-12-10T08:18:03.587Z,86.60
2017-12-10T08:20:29.343Z,86.79
2017-12-10T08:22:55.100Z,86.94
2017-12-10T08:25:20.842Z,87.27
2017-12-10T08:27:46.625Z,87.31
2017-12-10T08:30:12.391Z,87.14
2017-12-10T08:32:38.137Z,86.94
2017-12-10T08:35:03.903Z,86.99
2017-12-10T08:37:29.643Z,87.18
2017-12-10T08:39:55.391Z,87.22
2017-12-10T08:42:21.130Z,86.76
2017-12-10T08:44:46.874Z,86.98
2017-12-10T08:47:12.627Z,87.49
2017-12-10T08:49:38.397Z,87.22
2017-12-10T08:52:04.152Z,87.06
2017-12-10T08:54:29.907Z,86.45
2017-12-10T08:56:55.642Z,86.27
2017-12-10T08:59:21.403Z,86.35
2017-12-10T09:01:47.169Z,86.51
2017-12-10T09:04:12.940Z,85.91
2017-12-10T09:06:38.698Z,85.73
2017-12-10T09:09:04.455Z,85.78
2017-12-10T09:11:30.202Z,85.70
2017-12-10T09:13:55.958Z,85.63
2017-12-10T09:16:21.711Z,85.77
2017-12-10T09:18:47.479Z,84.63
2017-12-10T09:21:13.234Z,85.01
2017-12-10T09:23:38.990Z,85.70
2017-12-10T09:26:04.752Z,85.26
2017-12-10T09:28:30.516Z,84.91
2017-12-10T09:30:56.286Z,84.95
2017-12-10T09:33:22.030Z,84.59
2017-12-10T09:35:47.790Z,84.67
2017-12-10T09:38:13.555Z,85.17
2017-12-10T09:40:39.311Z,84.82
2017-12-10T09:43:05.059Z,84.98
2017-12-10T09:45:30.836Z,84.54
2017-12-10T09:47:56.599Z,84.51
2017-12-10T09:50:22.351Z,84.37
2017-12-10T09:52:48.101Z,83.57
2017-12-10T09:55:13.860Z,84.14
2017-12-10T09:57:39.602Z,83.74
2017-12-10T10:00:05.399Z,84.12
2017-12-10T10:02:31.147Z,83.99
2017-12-10T10:04:57.005Z,84.13
2017-12-10T10:07:22.750Z,84.46
2017-12-10T10:09:48.611Z,84.54
2017-12-10T10:12:14.382Z,84.87
2017-12-10T10:14:40.116Z,85.03
2017-12-10T10:17:05.858Z,84.01
2017-12-10T10:19:31.619Z,83.80
2017-12-10T10:21:57.375Z,83.52
2017-12-10T10:24:23.114Z,83.77
2017-12-10T10:26:48.883Z,83.59
2017-12-10T10:29:14.716Z,83.68
2017-12-10T10:31:40.520Z,84.02
2017-12-10T10:34:06.258Z,83.86
2017-12-10T10:36:32.028Z,83.79
2017-12-10T10:38:57.795Z,83.98
2017-12-10T10:41:23.644Z,83.70
2017-12-10T10:43:49.391Z,83.70
2017-12-10T10:46:15.160Z,83.62
2017-12-10T10:48:41.009Z,83.73
2017-12-10T10:51:06.770Z,82.99
2017-12-10T10:53:32.527Z,83.29
2017-12-10T10:55:58.279Z,83.06
2017-12-10T10:58:24.063Z,83.03
2017-12-10T11:00:49.815Z,82.90
2017-12-10T11:03:15.708Z,83.15
2017-12-10T11:05:41.446Z,83.83
2017-12-10T11:08:07.216Z,82.92
2017-12-10T11:10:32.962Z,82.28
2017-12-10T11:12:58.742Z,82.30
2017-12-10T11:15:24.491Z,82.57
2017-12-10T11:17:50.308Z,82.49
2017-12-10T11:20:16.841Z,82.41
2017-12-10T11:22:42.637Z,81.96
2017-12-10T11:25:08.398Z,82.37
2017-12-10T11:27:34.151Z,81.93
2017-12-10T11:29:59.917Z,83.15
2017-12-10T11:32:25.662Z,82.32
2017-12-10T11:34:51.424Z,82.20
2017-12-10T11:37:17.179Z,82.24
2017-12-10T11:39:42.948Z,82.05
2017-12-10T11:42:08.715Z,82.20
2017-12-10T11:44:34.467Z,82.46
2017-12-10T11:47:00.211Z,82.63
2017-12-10T11:49:25.972Z,82.19
2017-12-10T11:51:51.715Z,81.01
2017-12-10T11:54:17.466Z,81.44
2017-12-10T11:56:43.224Z,81.40
2017-12-10T11:59:09.003Z,82.22
2017-12-10T12:01:34.756Z,81.87
2017-12-10T12:04:01.110Z,81.80
2017-12-10T12:06:28.007Z,82.19
2017-12-10T12:08:53.750Z,81.68
2017-12-10T12:11:19.503Z,80.74
2017-12-10T12:13:45.245Z,81.09
2017-12-10T12:16:11.027Z,81.55
2017-12-10T12:18:36.777Z,81.95
2017-12-10T12:21:02.543Z,82.09
2017-12-10T12:23:28.290Z,81.30
2017-12-10T12:25:54.050Z,81.25
2017-12-10T12:28:19.807Z,80.54
2017-12-10T12:30:45.567Z,80.64
2017-12-10T12:33:11.328Z,80.21
2017-12-10T12:35:37.094Z,80.50
2017-12-10T12:38:02.840Z,81.18
2017-12-10T12:40:28.600Z,80.68
2017-12-10T12:42:54.345Z,81.61
2017-12-10T12:45:20.101Z,81.12
2017-12-10T12:47:45.858Z,81.42
2017-12-10T12:50:11.595Z,81.22
2017-12-10T12:52:37.347Z,81.76
2017-12-10T12:55:03.088Z,80.91
2017-12-10T12:57:28.849Z,81.38
2017-12-10T12:59:54.607Z,81.65
2017-12-10T13:02:20.358Z,81.43
2017-12-10T13:04:46.108Z,81.26
2017-12-10T13:07:11.871Z,81.16
2017-12-10T13:09:37.627Z,81.89
2017-12-10T13:12:03.388Z,81.67
2017-12-10T13:14:29.131Z,81.03
2017-12-10T13:16:54.895Z,81.40
2017-12-10T13:19:20.638Z,81.76
2017-12-10T13:21:46.424Z,81.42
2017-12-10T13:24:12.196Z,81.87
2017-12-10T13:26:37.956Z,82.15
2017-12-10T13:29:03.739Z,81.67
2017-12-10T13:31:29.478Z,81.53
2017-12-10T13:33:55.243Z,82.14
2017-12-10T13:36:20.979Z,81.69
2017-12-10T13:38:46.747Z,81.62
2017-12-10T13:41:12.500Z,81.68
2017-12-10T13:43:38.262Z,81.92
2017-12-10T13:46:04.012Z,81.75
2017-12-10T13:48:29.760Z,81.87
2017-12-10T13:50:55.504Z,82.23
2017-12-10T13:53:21.254Z,82.23
2017-12-10T13:55:46.994Z,82.46
2017-12-10T13:58:12.775Z,82.52
2017-12-10T14:00:38.555Z,83.09
2017-12-10T14:03:04.306Z,83.17
2017-12-10T14:05:30.056Z,82.88
2017-12-10T14:07:55.797Z,83.26
2017-12-10T14:10:21.575Z,83.48
2017-12-10T14:12:47.325Z,83.83
2017-12-10T14:15:13.091Z,83.57
2017-12-10T14:17:38.835Z,84.05
2017-12-10T14:20:04.599Z,84.21
2017-12-10T14:22:30.346Z,84.40
2017-12-10T14:24:56.102Z,84.57
2017-12-10T14:27:21.844Z,84.50
2017-12-10T14:29:47.622Z,84.81
2017-12-10T14:32:13.366Z,84.76
2017-12-10T14:34:39.144Z,84.86
2017-12-10T14:37:04.904Z,85.13
2017-12-10T14:39:30.664Z,85.00
2017-12-10T14:41:56.395Z,85.29
2017-12-10T14:44:22.168Z,85.39
2017-12-10T14:46:47.953Z,85.20
2017-12-10T14:49:13.716Z,85.30
2017-12-10T14:51:39.466Z,85.74
2017-12-10T14:54:05.220Z,86.17
2017-12-10T14:56:30.972Z,86.38
2017-12-10T14:58:56.720Z,86.64
2017-12-10T15:01:22.496Z,86.84
2017-12-10T15:03:48.238Z,87.16
2017-12-10T15:06:14.007Z,87.36
2017-12-10T15:08:39.850Z,87.61
2017-12-10T15:11:05.615Z,87.51
2017-12-10T15:13:31.375Z,87.66
2017-12-10T15:15:57.146Z,87.52
2017-12-10T15:18:22.891Z,87.64
2017-12-10T15:20:48.683Z,87.33
2017-12-10T15:23:14.431Z,87.44
2017-12-10T15:25:40.192Z,87.45
2017-12-10T15:28:05.959Z,87.82
2017-12-10T15:30:31.735Z,87.76
2017-12-10T15:32:57.487Z,87.72
2017-12-10T15:35:23.247Z,87.79
2017-12-10T15:37:48.997Z,87.99
2017-12-10T15:40:14.827Z,87.98
2017-12-10T15:42:40.566Z,88.09
2017-12-10T15:45:06.322Z,88.35
2017-12-10T15:47:32.095Z,88.52
2017-12-10T15:49:57.870Z,88.72
2017-12-10T15:52:23.622Z,88.82
2017-12-10T15:54:49.366Z,88.91
2017-12-10T15:57:15.130Z,89.00
2017-12-10T15:59:40.875Z,89.40
2017-12-10T16:02:06.628Z,89.10
2017-12-10T16:04:32.375Z,89.27
2017-12-10T16:06:58.144Z,89.32
2017-12-10T16:09:23.891Z,89.33
2017-12-10T16:11:49.646Z,89.14
2017-12-10T16:14:15.394Z,89.03
2017-12-10T16:16:41.151Z,89.23
2017-12-10T16:19:06.900Z,89.45
2017-12-10T16:21:32.646Z,89.30
2017-12-10T16:23:58.477Z,89.56
2017-12-10T16:26:24.227Z,89.67
2017-12-10T16:28:49.989Z,89.44
2017-12-10T16:31:15.739Z,89.09
2017-12-10T16:33:41.514Z,89.02
2017-12-10T16:36:07.265Z,88.68
2017-12-10T16:38:33.027Z,88.39
2017-12-10T16:40:58.775Z,88.38
2017-12-10T16:43:24.540Z,88.12
2017-12-10T16:45:50.295Z,87.88
2017-12-10T16:48:16.048Z,87.61
2017-12-10T16:50:41.820Z,87.38
2017-12-10T16:53:07.609Z,87.05
2017-12-10T16:55:33.361Z,87.02
2017-12-10T16:57:59.130Z,86.62
2017-12-10T17:00:24.880Z,86.30
2017-12-10T17:02:50.645Z,85.93
2017-12-10T17:05:16.407Z,86.18
2017-12-10T17:07:42.147Z,85.65
2017-12-10T17:10:07.955Z,85.52
2017-12-10T17:12:33.700Z,85.67
2017-12-10T17:14:59.476Z,85.37
2017-12-10T17:17:25.231Z,85.17
2017-12-10T17:19:50.987Z,85.29
2017-12-10T17:22:16.727Z,85.26
2017-12-10T17:24:42.491Z,84.94
2017-12-10T17:27:08.247Z,85.02
2017-12-10T17:29:34.036Z,85.25
2017-12-10T17:31:59.765Z,85.54
2017-12-10T17:34:25.523Z,85.23
2017-12-10T17:36:51.275Z,85.33
2017-12-10T17:39:17.044Z,85.63
2017-12-10T17:41:42.792Z,85.86
2017-12-10T17:44:08.568Z,85.79
2017-12-10T17:46:34.314Z,86.01
2017-12-10T17:49:00.074Z,86.40
2017-12-10T17:51:25.815Z,86.53
2017-12-10T17:53:51.574Z,86.68
2017-12-10T17:56:17.346Z,86.92
2017-12-10T17:58:43.111Z,87.08
2017-12-10T18:01:08.864Z,87.17
2017-12-10T18:03:34.607Z,87.32
2017-12-10T18:06:00.358Z,87.29
2017-12-10T18:08:26.095Z,87.26
2017-12-10T18:10:51.879Z,87.19
2017-12-10T18:13:17.618Z,87.34
2017-12-10T18:15:43.367Z,87.23
2017-12-10T18:18:09.112Z,87.22
2017-12-10T18:20:35.010Z,87.39
2017-12-10T18:23:00.775Z,87.27
2017-12-10T18:25:26.544Z,87.45
2017-12-10T18:27:52.286Z,87.57
2017-12-10T18:30:18.080Z,87.62
2017-12-10T18:32:43.814Z,87.68
2017-12-10T18:35:09.581Z,87.94
2017-12-10T18:37:35.346Z,87.79
2017-12-10T18:40:01.107Z,87.80
2017-12-10T18:42:26.910Z,87.82
2017-12-10T18:44:52.690Z,87.61
2017-12-10T18:47:18.464Z,87.70
2017-12-10T18:49:44.227Z,87.69
2017-12-10T18:52:10.828Z,87.79
2017-12-10T18:54:36.597Z,87.65
2017-12-10T18:57:02.347Z,87.87
2017-12-10T18:59:28.107Z,88.04
2017-12-10T19:01:53.859Z,87.89
2017-12-10T19:04:19.639Z,88.05
2017-12-10T19:06:45.384Z,87.99
2017-12-10T19:09:11.135Z,87.96
2017-12-10T19:11:36.904Z,87.41
2017-12-10T19:14:02.661Z,87.55
2017-12-10T19:16:28.443Z,87.70
2017-12-10T19:18:54.187Z,87.73
2017-12-10T19:21:19.971Z,87.68
2017-12-10T19:23:45.771Z,87.64
2017-12-10T19:26:11.540Z,87.97
2017-12-10T19:28:37.307Z,87.76
2017-12-10T19:31:03.072Z,87.17
2017-12-10T19:33:28.822Z,87.04
2017-12-10T19:35:54.583Z,86.93
2017-12-10T19:38:20.348Z,86.41
2017-12-10T19:40:46.110Z,86.43
2017-12-10T19:43:11.854Z,86.53
2017-12-10T19:45:37.620Z,86.24
2017-12-10T19:48:03.376Z,86.05
2017-12-10T19:50:29.130Z,85.92
2017-12-10T19:52:54.886Z,85.95
2017-12-10T19:55:20.648Z,86.06
2017-12-10T19:57:46.420Z,85.93
2017-12-10T20:00:12.167Z,85.71
2017-12-10T20:02:37.928Z,85.70
2017-12-10T20:05:03.684Z,85.68
2017-12-10T20:07:29.441Z,85.80
2017-12-10T20:09:55.190Z,85.61
2017-12-10T20:12:20.956Z,85.54
2017-12-10T20:14:46.715Z,85.31
2017-12-10T20:17:12.504Z,85.30
2017-12-10T20:19:38.265Z,85.62
2017-12-10T20:22:04.039Z,85.67
2017-12-10T20:24:29.780Z,85.49
2017-12-10T20:26:55.550Z,85.31
2017-12-10T20:29:21.307Z,85.10
2017-12-10T20:31:47.063Z,85.10
2017-12-10T20:34:12.818Z,85.20
2017-12-10T20:36:38.639Z,85.38
2017-12-10T20:39:04.404Z,84.57
2017-12-10T20:41:30.960Z,84.57
2017-12-10T20:43:56.710Z,84.56
2017-12-10T20:46:22.472Z,84.34
2017-12-10T20:48:48.222Z,84.46
2017-12-10T20:51:13.962Z,84.70
2017-12-10T20:53:39.733Z,84.56
2017-12-10T20:56:05.479Z,84.58
2017-12-10T20:58:31.239Z,84.69
2017-12-10T21:00:56.982Z,84.65
2017-12-10T21:03:22.748Z,84.45
2017-12-10T21:05:48.532Z,84.42
2017-12-10T21:08:14.298Z,84.19
2017-12-10T21:10:40.046Z,85.10
2017-12-10T21:13:05.812Z,85.04
2017-12-10T21:15:31.575Z,85.36
2017-12-10T21:17:57.368Z,85.19
2017-12-10T21:20:23.116Z,85.06
2017-12-10T21:22:49.298Z,85.56
2017-12-10T21:25:15.084Z,85.23
2017-12-10T21:27:40.838Z,84.70
2017-12-10T21:30:06.594Z,84.60
2017-12-10T21:32:32.342Z,84.50
2017-12-10T21:34:58.122Z,85.32
2017-12-10T21:37:23.874Z,85.23
2017-12-10T21:39:49.654Z,84.85
2017-12-10T21:42:15.415Z,85.37
2017-12-10T21:44:41.165Z,85.28
2017-12-10T21:47:06.902Z,85.51
2017-12-10T21:49:32.677Z,85.75
2017-12-10T21:51:58.431Z,85.76
2017-12-10T21:54:24.194Z,85.69
2017-12-10T21:56:49.955Z,85.61
2017-12-10T21:59:15.743Z,86.04
2017-12-10T22:01:41.508Z,86.17
2017-12-10T22:04:07.271Z,86.15
2017-12-10T22:06:33.029Z,86.31
2017-12-10T22:08:58.771Z,86.64
2017-12-10T22:11:24.535Z,86.38
2017-12-10T22:13:50.296Z,86.39
2017-12-10T22:16:16.039Z,86.27
2017-12-10T22:18:41.794Z,86.34
2017-12-10T22:21:07.547Z,86.46
2017-12-10T22:23:33.295Z,86.58
2017-12-10T22:25:59.051Z,86.21
2017-12-10T22:28:24.807Z,85.47
2017-12-10T22:30:50.568Z,86.02
2017-12-10T22:33:16.327Z,86.36
2017-12-10T22:35:42.075Z,86.38
2017-12-10T22:38:07.830Z,86.20
2017-12-10T22:40:33.567Z,86.31
2017-12-10T22:42:59.320Z,86.33
2017-12-10T22:45:25.081Z,86.04
2017-12-10T22:47:50.842Z,85.81
2017-12-10T22:50:16.574Z,85.70
2017-12-10T22:52:42.327Z,86.10
2017-12-10T22:55:08.071Z,86.31
2017-12-10T22:57:33.818Z,86.06
2017-12-10T22:59:59.575Z,86.17
2017-12-10T23:02:25.330Z,86.33
2017-12-10T23:04:51.080Z,86.10
2017-12-10T23:07:16.847Z,86.08
2017-12-10T23:09:42.612Z,85.96
2017-12-10T23:12:08.356Z,85.62
2017-12-10T23:14:40.097Z,85.89
2017-12-10T23:17:05.850Z,86.16
2017-12-10T23:19:31.875Z,86.27
2017-12-10T23:21:58.080Z,86.48
2017-12-10T23:24:24.068Z,86.18
2017-12-10T23:26:49.807Z,85.96
2017-12-10T23:29:15.749Z,86.05
2017-12-10T23:31:41.535Z,85.85
2017-12-10T23:34:07.312Z,86.04
2017-12-10T23:36:33.591Z,86.18
2017-12-10T23:38:59.394Z,86.17
2017-12-10T23:41:25.132Z,86.11
2017-12-10T23:43:51.726Z,85.87
2017-12-10T23:46:17.475Z,85.96
2017-12-10T23:48:43.231Z,86.06
2017-12-10T23:51:08.967Z,85.94
2017-12-10T23:53:34.735Z,85.98
2017-12-10T23:56:00.573Z,86.14
2017-12-10T23:58:26.331Z,86.47
